Time;durP1;ratioP1;P1;durP2;ratioP2;P2;SDS_P1;SDS_P2;PMS_P1;PMS_P2;Temp;Humidity;BMP_temperature;BMP_pressure;BME280_temperature;BME280_humidity;BME280_pressure;Samples;Min_cycle;Max_cycle;Signal;HPM_P1;HPM_P2
2023/12/21 04:19:27;;;;;;;;;0.00;0.00;;;;;;;;5371816;22;46030;-78
2023/12/21 04:21:52;;;;;;;;;0.00;0.00;;;;;;;;5033165;28;45353;-78
2023/12/21 04:24:18;;;;;;;;;0.00;0.00;;;;;;;;5028270;28;45362;-75
2023/12/21 04:26:43;;;;;;;;;0.00;0.00;;;;;;;;5043250;28;45599;-79
2023/12/21 04:29:09;;;;;;;;;0.00;0.00;;;;;;;;5030418;28;46270;-78
2023/12/21 04:31:34;;;;;;;;;0.00;0.00;;;;;;;;5035797;28;45440;-77
2023/12/21 04:33:59;;;;;;;;;0.00;0.00;;;;;;;;5036568;28;45389;-78
2023/12/21 04:36:24;;;;;;;;;0.67;0.00;;;;;;;;5038690;28;45401;-78
2023/12/21 04:38:50;;;;;;;;;1.00;0.00;;;;;;;;5035594;28;46426;-78
2023/12/21 04:41:15;;;;;;;;;0.00;0.00;;;;;;;;5038522;28;45218;-76
2023/12/21 04:43:41;;;;;;;;;0.33;0.33;;;;;;;;5033102;28;45137;-78
2023/12/21 04:46:06;;;;;;;;;0.00;0.00;;;;;;;;5039183;28;45244;-77
2023/12/21 04:48:32;;;;;;;;;0.00;0.00;;;;;;;;5034165;28;45602;-81
2023/12/21 04:50:57;;;;;;;;;0.67;0.00;;;;;;;;5040343;28;45385;-81
2023/12/21 04:53:22;;;;;;;;;0.00;0.00;;;;;;;;5038146;28;45379;-80
2023/12/21 04:55:48;;;;;;;;;0.00;0.00;;;;;;;;5041172;28;44694;-81
2023/12/21 04:58:13;;;;;;;;;0.00;0.00;;;;;;;;5034154;28;46686;-80
2023/12/21 05:00:40;;;;;;;;;0.33;0.00;;;;;;;;5038585;28;45231;-80
2023/12/21 05:03:05;;;;;;;;;0.00;0.00;;;;;;;;5035617;28;45421;-80
2023/12/21 05:05:30;;;;;;;;;0.00;0.00;;;;;;;;5050063;28;45896;-80
2023/12/21 05:07:56;;;;;;;;;0.00;0.00;;;;;;;;5040499;28;46081;-80
2023/12/21 05:10:21;;;;;;;;;0.00;0.00;;;;;;;;5041941;28;45260;-80
2023/12/21 05:12:46;;;;;;;;;0.00;0.00;;;;;;;;5040790;28;45611;-79
2023/12/21 05:15:11;;;;;;;;;0.00;0.00;;;;;;;;5043314;28;45330;-77
2023/12/21 05:17:36;;;;;;;;;0.00;0.00;;;;;;;;5041463;28;45962;-77
2023/12/21 05:20:03;;;;;;;;;0.00;0.00;;;;;;;;5041074;28;45428;-78
2023/12/21 05:22:28;;;;;;;;;0.00;0.00;;;;;;;;5042037;28;45260;-78
2023/12/21 05:24:53;;;;;;;;;0.00;0.00;;;;;;;;5039549;28;45437;-80
2023/12/21 05:27:18;;;;;;;;;0.00;0.00;;;;;;;;5041629;28;45258;-79
2023/12/21 05:29:44;;;;;;;;;0.00;0.00;;;;;;;;5039616;28;45424;-79
2023/12/21 05:32:09;;;;;;;;;0.00;0.00;;;;;;;;5042433;28;45501;-79
2023/12/21 05:34:34;;;;;;;;;0.00;0.00;;;;;;;;5036959;28;45341;-77
2023/12/21 05:36:59;;;;;;;;;0.00;0.00;;;;;;;;5041698;28;46529;-79
2023/12/21 05:39:25;;;;;;;;;0.00;0.00;;;;;;;;5036408;28;45354;-81
2023/12/21 05:41:50;;;;;;;;;0.00;0.00;;;;;;;;5041686;28;45326;-79
2023/12/21 05:44:16;;;;;;;;;0.00;0.00;;;;;;;;5033785;28;45380;-80
2023/12/21 05:46:42;;;;;;;;;0.00;0.00;;;;;;;;5038559;28;45438;-80
2023/12/21 05:49:08;;;;;;;;;0.00;0.00;;;;;;;;5032342;28;45237;-80
2023/12/21 05:51:33;;;;;;;;;0.00;0.00;;;;;;;;5041612;28;45381;-79
2023/12/21 05:53:58;;;;;;;;;0.00;0.00;;;;;;;;5034356;28;45469;-80
2023/12/21 05:56:23;;;;;;;;;0.33;0.00;;;;;;;;5028420;28;45600;-80
2023/12/21 05:58:48;;;;;;;;;0.00;0.00;;;;;;;;5027061;28;45243;-81
2023/12/21 06:01:13;;;;;;;;;0.00;0.00;;;;;;;;5041351;28;45595;-82
2023/12/21 06:03:39;;;;;;;;;0.00;0.00;;;;;;;;5033052;28;45630;-81
2023/12/21 06:06:04;;;;;;;;;0.00;0.00;;;;;;;;5034307;28;45458;-81
2023/12/21 06:08:29;;;;;;;;;0.00;0.00;;;;;;;;5024327;28;45346;-81
2023/12/21 06:10:54;;;;;;;;;0.00;0.00;;;;;;;;5030883;28;45561;-81
2023/12/21 06:13:19;;;;;;;;;0.00;0.00;;;;;;;;5025733;28;45414;-83
2023/12/21 06:15:45;;;;;;;;;0.00;0.00;;;;;;;;5030826;28;45408;-80
2023/12/21 06:18:10;;;;;;;;;0.00;0.00;;;;;;;;5025615;28;45287;-79
2023/12/21 06:20:35;;;;;;;;;0.33;0.00;;;;;;;;5036250;28;45364;-79
2023/12/21 06:23:01;;;;;;;;;0.00;0.00;;;;;;;;5027052;28;45826;-77
2023/12/21 06:25:27;;;;;;;;;0.00;0.00;;;;;;;;5037509;28;46323;-77
2023/12/21 06:27:52;;;;;;;;;0.00;0.00;;;;;;;;5033541;28;45405;-78
2023/12/21 06:30:17;;;;;;;;;0.00;0.00;;;;;;;;5039100;28;45226;-78
2023/12/21 06:32:43;;;;;;;;;1.00;0.00;;;;;;;;5031239;28;45777;-78
2023/12/21 06:35:08;;;;;;;;;1.00;0.00;;;;;;;;5043390;28;46122;-78
2023/12/21 06:37:33;;;;;;;;;0.00;0.00;;;;;;;;5036282;28;45420;-78
2023/12/21 06:39:58;;;;;;;;;0.00;0.00;;;;;;;;5048465;28;45363;-78
2023/12/21 06:42:23;;;;;;;;;0.00;0.00;;;;;;;;5038100;28;45486;-78
2023/12/21 06:44:48;;;;;;;;;0.00;0.00;;;;;;;;5035597;28;45502;-79
2023/12/21 06:47:14;;;;;;;;;0.00;0.00;;;;;;;;5041564;28;45303;-79
2023/12/21 06:49:39;;;;;;;;;0.00;0.00;;;;;;;;5036148;28;44787;-78
2023/12/21 06:52:04;;;;;;;;;2.00;0.67;;;;;;;;5033327;28;45325;-79
2023/12/21 06:54:29;;;;;;;;;0.00;0.00;;;;;;;;5033787;28;46280;-78
2023/12/21 06:56:54;;;;;;;;;0.00;0.00;;;;;;;;5032941;28;45348;-80
2023/12/21 06:59:19;;;;;;;;;0.00;0.00;;;;;;;;5034775;28;45153;-79
2023/12/21 07:01:45;;;;;;;;;0.00;0.00;;;;;;;;5030848;28;45583;-78
2023/12/21 07:04:11;;;;;;;;;0.00;0.00;;;;;;;;5036711;28;45423;-78
2023/12/21 07:06:36;;;;;;;;;0.00;0.00;;;;;;;;5033894;28;45291;-80
2023/12/21 07:09:02;;;;;;;;;0.00;0.00;;;;;;;;5029236;28;45360;-79
2023/12/21 07:11:27;;;;;;;;;0.00;0.00;;;;;;;;5032131;28;45233;-76
2023/12/21 07:13:52;;;;;;;;;0.00;0.00;;;;;;;;5036861;28;46650;-77
2023/12/21 07:16:17;;;;;;;;;0.00;0.00;;;;;;;;5033738;28;45198;-79
2023/12/21 07:18:42;;;;;;;;;0.67;0.00;;;;;;;;5029445;28;45552;-76
2023/12/21 07:21:08;;;;;;;;;0.00;0.00;;;;;;;;5039803;28;45287;-76
2023/12/21 07:23:33;;;;;;;;;0.00;0.00;;;;;;;;5033148;28;47359;-78
2023/12/21 07:25:58;;;;;;;;;0.00;0.00;;;;;;;;5039359;28;45373;-79
2023/12/21 07:28:25;;;;;;;;;0.00;0.00;;;;;;;;5036034;28;45251;-78
2023/12/21 07:30:50;;;;;;;;;0.00;0.00;;;;;;;;5035001;28;45489;-77
2023/12/21 07:33:16;;;;;;;;;0.00;0.00;;;;;;;;5031753;28;45663;-78
2023/12/21 07:35:41;;;;;;;;;0.00;0.00;;;;;;;;5039601;28;45460;-77
2023/12/21 07:38:06;;;;;;;;;0.00;0.00;;;;;;;;5034409;28;45421;-77
2023/12/21 07:40:31;;;;;;;;;0.00;0.00;;;;;;;;5040029;28;45535;-77
2023/12/21 07:42:56;;;;;;;;;0.00;0.00;;;;;;;;5028060;28;46853;-77
2023/12/21 07:45:22;;;;;;;;;0.00;0.00;;;;;;;;5036707;28;45283;-77
2023/12/21 07:47:48;;;;;;;;;0.00;0.00;;;;;;;;5029901;28;45610;-78
2023/12/21 07:50:13;;;;;;;;;0.67;0.00;;;;;;;;5038169;28;45566;-78
2023/12/21 07:52:38;;;;;;;;;0.00;0.00;;;;;;;;5029906;28;47041;-78
2023/12/21 07:55:04;;;;;;;;;0.33;0.00;;;;;;;;5037806;28;45365;-76
2023/12/21 07:57:30;;;;;;;;;0.00;0.00;;;;;;;;5032717;28;45269;-75
2023/12/21 07:59:55;;;;;;;;;1.33;1.00;;;;;;;;5036031;28;45435;-76
2023/12/21 08:02:20;;;;;;;;;2.00;0.67;;;;;;;;5036731;28;46920;-76
2023/12/21 08:04:45;;;;;;;;;0.00;0.00;;;;;;;;5033071;28;45504;-77
2023/12/21 08:07:10;;;;;;;;;1.33;0.33;;;;;;;;5037704;28;45405;-78
2023/12/21 08:09:36;;;;;;;;;0.00;0.00;;;;;;;;5032399;28;46091;-77
2023/12/21 08:12:01;;;;;;;;;2.00;0.00;;;;;;;;5038821;28;45357;-78
2023/12/21 08:14:28;;;;;;;;;0.00;0.00;;;;;;;;5034408;28;45435;-77
2023/12/21 08:16:53;;;;;;;;;1.00;1.00;;;;;;;;5029673;28;45176;-78
2023/12/21 08:19:18;;;;;;;;;1.00;1.00;;;;;;;;5031243;28;45441;-77
2023/12/21 08:21:43;;;;;;;;;0.67;0.00;;;;;;;;5038962;28;45320;-78
2023/12/21 08:24:10;;;;;;;;;0.33;0.33;;;;;;;;5033354;28;45421;-77
2023/12/21 08:26:35;;;;;;;;;0.00;0.00;;;;;;;;5035387;28;45507;-78
2023/12/21 08:29:00;;;;;;;;;2.00;1.00;;;;;;;;5033957;28;45362;-78
2023/12/21 08:31:25;;;;;;;;;1.67;1.00;;;;;;;;5036141;28;45396;-76
2023/12/21 08:33:51;;;;;;;;;0.00;0.00;;;;;;;;5032347;28;44771;-79
2023/12/21 08:36:16;;;;;;;;;1.00;1.00;;;;;;;;5028394;28;45500;-78
2023/12/21 08:38:41;;;;;;;;;3.00;1.67;;;;;;;;5035907;28;45529;-78
2023/12/21 08:41:06;;;;;;;;;2.00;1.00;;;;;;;;5041402;28;45504;-78
2023/12/21 08:43:32;;;;;;;;;3.00;3.00;;;;;;;;5040592;28;45379;-77
2023/12/21 08:45:57;;;;;;;;;4.33;2.67;;;;;;;;5040841;28;45434;-78
2023/12/21 08:48:22;;;;;;;;;1.67;0.67;;;;;;;;5039137;28;46442;-77
2023/12/21 08:50:47;;;;;;;;;1.33;0.67;;;;;;;;5039829;28;45767;-76
2023/12/21 08:53:13;;;;;;;;;1.67;1.67;;;;;;;;5040943;28;45427;-77
2023/12/21 08:55:38;;;;;;;;;0.00;0.00;;;;;;;;5040447;28;45452;-75
2023/12/21 08:58:04;;;;;;;;;0.33;0.33;;;;;;;;5040466;28;45439;-77
2023/12/21 09:00:29;;;;;;;;;0.00;0.00;;;;;;;;5042976;28;46664;-75
2023/12/21 09:02:54;;;;;;;;;0.00;0.00;;;;;;;;5041352;28;45151;-76
2023/12/21 09:05:19;;;;;;;;;1.00;0.00;;;;;;;;5039801;28;45223;-76
2023/12/21 09:07:45;;;;;;;;;0.00;0.00;;;;;;;;5040379;28;45604;-75
2023/12/21 09:10:10;;;;;;;;;0.00;0.00;;;;;;;;5052399;28;45546;-75
2023/12/21 09:12:35;;;;;;;;;0.00;0.00;;;;;;;;5038987;28;45260;-75
2023/12/21 09:15:00;;;;;;;;;0.00;0.00;;;;;;;;5037506;28;45776;-75
2023/12/21 09:17:26;;;;;;;;;0.00;0.00;;;;;;;;5041929;28;45509;-75
2023/12/21 09:19:51;;;;;;;;;0.00;0.00;;;;;;;;5036368;28;45394;-74
2023/12/21 09:22:16;;;;;;;;;0.00;0.00;;;;;;;;5041740;28;45163;-75
2023/12/21 09:24:41;;;;;;;;;2.00;0.00;;;;;;;;5039960;28;45147;-74
2023/12/21 09:27:06;;;;;;;;;0.00;0.00;;;;;;;;5043186;28;46679;-75
2023/12/21 09:29:32;;;;;;;;;1.00;1.00;;;;;;;;5038102;28;45654;-75
2023/12/21 09:31:59;;;;;;;;;1.00;1.00;;;;;;;;5041552;28;45218;-75
2023/12/21 09:34:24;;;;;;;;;0.00;0.00;;;;;;;;5038249;28;45212;-75
2023/12/21 09:36:49;;;;;;;;;1.67;0.00;;;;;;;;5041468;28;45277;-75
2023/12/21 09:39:14;;;;;;;;;0.00;0.00;;;;;;;;5039108;28;45560;-75
2023/12/21 09:41:40;;;;;;;;;0.00;0.00;;;;;;;;5041741;28;45444;-75
2023/12/21 09:44:05;;;;;;;;;0.00;0.00;;;;;;;;5036533;28;45334;-75
2023/12/21 09:46:37;;;;;;;;;0.00;0.00;;;;;;;;5036418;28;45429;-75
2023/12/21 09:49:04;;;;;;;;;0.00;0.00;;;;;;;;5037489;28;45739;-75
2023/12/21 09:51:30;;;;;;;;;1.00;0.00;;;;;;;;5039823;28;45239;-75
2023/12/21 09:53:56;;;;;;;;;0.00;0.00;;;;;;;;5035473;28;45316;-75
2023/12/21 09:56:22;;;;;;;;;0.00;0.00;;;;;;;;5041161;28;45331;-75
2023/12/21 09:58:48;;;;;;;;;1.00;0.00;;;;;;;;5037428;28;45498;-75
2023/12/21 10:01:13;;;;;;;;;0.00;0.00;;;;;;;;5040963;28;45319;-75
2023/12/21 10:03:39;;;;;;;;;2.67;1.00;;;;;;;;5035762;28;45276;-75
2023/12/21 10:06:04;;;;;;;;;0.67;0.00;;;;;;;;5041040;28;45478;-75
2023/12/21 10:08:33;;;;;;;;;3.00;3.00;;;;;;;;5036846;28;45328;-75
2023/12/21 10:10:58;;;;;;;;;1.00;1.00;;;;;;;;5041100;28;45429;-76
2023/12/21 10:13:25;;;;;;;;;3.67;2.00;;;;;;;;5039059;28;45406;-75
2023/12/21 10:15:56;;;;;;;;;1.67;0.67;;;;;;;;5041695;28;45232;-75
2023/12/21 10:18:22;;;;;;;;;5.00;2.00;;;;;;;;5039876;28;45515;-75
2023/12/21 10:20:47;;;;;;;;;1.33;1.00;;;;;;;;5041404;28;45325;-75
2023/12/21 10:23:13;;;;;;;;;1.33;1.00;;;;;;;;5039297;28;45402;-75
2023/12/21 10:25:38;;;;;;;;;1.00;1.00;;;;;;;;5040873;28;44830;-75
2023/12/21 10:28:04;;;;;;;;;5.33;2.00;;;;;;;;5038195;28;47185;-75
2023/12/21 10:30:29;;;;;;;;;5.33;1.00;;;;;;;;5038283;28;45260;-75
2023/12/21 10:32:55;;;;;;;;;0.00;0.00;;;;;;;;5037605;28;45486;-75
2023/12/21 10:35:20;;;;;;;;;2.33;2.00;;;;;;;;5038831;28;45541;-82
2023/12/21 10:37:49;;;;;;;;;0.00;0.00;;;;;;;;5033390;28;45596;-74
2023/12/21 10:40:14;;;;;;;;;2.00;0.33;;;;;;;;5038168;28;45422;-75
2023/12/21 10:42:46;;;;;;;;;0.00;0.00;;;;;;;;5040433;28;45291;-78
2023/12/21 10:45:13;;;;;;;;;4.33;1.33;;;;;;;;5033733;28;45457;-76
2023/12/21 10:47:41;;;;;;;;;1.67;1.00;;;;;;;;5038361;28;46615;-78
2023/12/21 10:50:07;;;;;;;;;0.33;0.33;;;;;;;;5036360;28;45294;-78
2023/12/21 10:52:34;;;;;;;;;2.00;0.00;;;;;;;;5040917;28;45384;-79
2023/12/21 10:55:00;;;;;;;;;0.00;0.00;;;;;;;;5037714;28;45566;-79
2023/12/21 10:57:26;;;;;;;;;0.33;0.33;;;;;;;;5040509;28;45434;-80
2023/12/21 10:59:51;;;;;;;;;1.00;1.00;;;;;;;;5036925;28;45350;-78
2023/12/21 11:02:17;;;;;;;;;0.00;0.00;;;;;;;;5039748;28;45428;-78
2023/12/21 11:04:44;;;;;;;;;1.00;1.00;;;;;;;;5036307;28;45381;-78
2023/12/21 11:07:11;;;;;;;;;1.33;1.00;;;;;;;;5038624;28;46672;-79
2023/12/21 11:09:36;;;;;;;;;1.33;1.33;;;;;;;;5037376;28;45247;-79
2023/12/21 11:12:02;;;;;;;;;5.00;2.67;;;;;;;;5038685;28;45358;-79
2023/12/21 11:14:28;;;;;;;;;3.67;2.00;;;;;;;;5033288;28;45303;-78
2023/12/21 11:16:56;;;;;;;;;1.00;1.00;;;;;;;;5038088;28;47053;-77
2023/12/21 11:19:30;;;;;;;;;0.67;0.67;;;;;;;;5037008;28;45367;-78
2023/12/21 11:21:55;;;;;;;;;0.00;0.00;;;;;;;;5035811;28;45341;-78
2023/12/21 11:24:21;;;;;;;;;5.33;2.00;;;;;;;;5036238;28;45310;-77
2023/12/21 11:26:48;;;;;;;;;1.00;1.00;;;;;;;;5038097;28;45629;-78
2023/12/21 11:29:13;;;;;;;;;4.00;1.00;;;;;;;;5038264;28;45500;-77
2023/12/21 11:31:40;;;;;;;;;2.00;2.00;;;;;;;;5038673;28;45416;-77
2023/12/21 11:34:11;;;;;;;;;2.00;2.00;;;;;;;;5038187;28;45515;-78
2023/12/21 11:36:36;;;;;;;;;2.00;1.00;;;;;;;;5041301;28;47194;-78
2023/12/21 11:39:07;;;;;;;;;4.00;0.00;;;;;;;;5033861;28;45413;-78
2023/12/21 11:41:32;;;;;;;;;3.00;1.33;;;;;;;;5036380;28;45104;-78
2023/12/21 11:44:02;;;;;;;;;1.00;1.00;;;;;;;;5037242;28;45468;-78
2023/12/21 11:46:27;;;;;;;;;3.00;1.00;;;;;;;;5044638;28;48099;-78
2023/12/21 11:48:53;;;;;;;;;2.33;1.00;;;;;;;;5035928;28;45475;-78
2023/12/21 11:51:18;;;;;;;;;2.33;1.00;;;;;;;;5039098;28;45494;-78
2023/12/21 11:53:43;;;;;;;;;2.00;1.00;;;;;;;;5034592;28;45598;-78
2023/12/21 11:56:13;;;;;;;;;1.67;1.00;;;;;;;;5039699;28;46335;-77
2023/12/21 11:58:39;;;;;;;;;0.33;0.33;;;;;;;;5036627;28;45442;-78
2023/12/21 12:01:04;;;;;;;;;4.33;2.00;;;;;;;;5039898;28;45417;-78
2023/12/21 12:03:30;;;;;;;;;3.00;1.00;;;;;;;;5037006;28;45655;-77
2023/12/21 12:05:59;;;;;;;;;2.00;1.00;;;;;;;;5045506;28;46746;-77
2023/12/21 12:08:24;;;;;;;;;1.00;1.00;;;;;;;;5035327;28;45457;-78
2023/12/21 12:10:52;;;;;;;;;3.33;2.00;;;;;;;;5037544;28;45408;-76
2023/12/21 12:13:18;;;;;;;;;1.00;1.00;;;;;;;;5036070;28;45547;-77
2023/12/21 12:15:47;;;;;;;;;3.67;1.00;;;;;;;;5037664;28;45417;-77
2023/12/21 12:18:12;;;;;;;;;2.33;2.33;;;;;;;;5036414;28;45489;-77
2023/12/21 12:20:43;;;;;;;;;2.00;2.00;;;;;;;;5034596;28;45358;-77
2023/12/21 12:23:09;;;;;;;;;3.00;1.67;;;;;;;;5035543;28;45209;-77
2023/12/21 12:25:35;;;;;;;;;4.33;1.00;;;;;;;;5038953;28;45328;-77
2023/12/21 12:28:00;;;;;;;;;0.67;0.67;;;;;;;;5037014;28;45298;-77
2023/12/21 12:30:25;;;;;;;;;5.00;2.00;;;;;;;;5042680;28;45340;-77
2023/12/21 12:32:51;;;;;;;;;0.33;0.33;;;;;;;;5035568;28;45326;-77
2023/12/21 12:35:17;;;;;;;;;0.67;0.67;;;;;;;;5037995;28;45614;-78
2023/12/21 12:37:42;;;;;;;;;0.00;0.00;;;;;;;;5038488;28;45256;-78
2023/12/21 12:40:07;;;;;;;;;1.00;1.00;;;;;;;;5037722;28;45396;-78
2023/12/21 12:42:33;;;;;;;;;3.00;1.00;;;;;;;;5039063;28;46883;-78
2023/12/21 12:44:58;;;;;;;;;2.00;1.00;;;;;;;;5038084;28;46389;-77
2023/12/21 12:47:23;;;;;;;;;0.67;0.67;;;;;;;;5041410;28;45279;-78
2023/12/21 12:49:50;;;;;;;;;2.67;1.00;;;;;;;;5039819;28;45369;-78
2023/12/21 12:52:19;;;;;;;;;2.00;0.33;;;;;;;;5043272;28;45191;-78
2023/12/21 12:54:46;;;;;;;;;3.00;1.67;;;;;;;;5034896;28;46899;-77
2023/12/21 12:57:12;;;;;;;;;1.33;0.33;;;;;;;;5039746;28;44719;-77
2023/12/21 12:59:37;;;;;;;;;1.33;1.00;;;;;;;;5036488;28;45468;-78
2023/12/21 13:02:02;;;;;;;;;2.00;1.00;;;;;;;;5037167;28;47324;-77
2023/12/21 13:04:27;;;;;;;;;2.00;1.00;;;;;;;;5033111;28;45723;-76
2023/12/21 13:06:53;;;;;;;;;1.00;1.00;;;;;;;;5038302;28;45386;-76
2023/12/21 13:09:19;;;;;;;;;2.00;1.00;;;;;;;;5034818;28;45495;-77
2023/12/21 13:11:44;;;;;;;;;6.00;2.00;;;;;;;;5038258;28;45484;-77
2023/12/21 13:14:10;;;;;;;;;0.67;0.67;;;;;;;;5033922;28;45477;-78
2023/12/21 13:16:36;;;;;;;;;4.00;1.67;;;;;;;;5038336;28;45255;-78
2023/12/21 13:19:04;;;;;;;;;3.67;1.33;;;;;;;;5032231;28;45299;-77
2023/12/21 13:21:29;;;;;;;;;2.33;1.33;;;;;;;;5036730;28;46053;-78
2023/12/21 13:23:55;;;;;;;;;4.00;2.00;;;;;;;;5036338;28;46509;-78
2023/12/21 13:26:20;;;;;;;;;3.00;1.67;;;;;;;;5037922;28;45493;-77
2023/12/21 13:28:45;;;;;;;;;5.33;2.67;;;;;;;;5035909;28;45328;-79
2023/12/21 13:31:10;;;;;;;;;2.33;2.00;;;;;;;;5041620;28;45442;-79
2023/12/21 13:33:37;;;;;;;;;2.67;2.00;;;;;;;;5036754;28;45562;-79
2023/12/21 13:36:03;;;;;;;;;5.00;2.00;;;;;;;;5041364;28;45425;-78
2023/12/21 13:38:28;;;;;;;;;2.00;2.00;;;;;;;;5039698;28;45334;-78
2023/12/21 13:40:53;;;;;;;;;2.67;1.67;;;;;;;;5041011;28;45333;-78
2023/12/21 13:43:18;;;;;;;;;5.33;2.00;;;;;;;;5039281;28;45590;-78
2023/12/21 13:45:44;;;;;;;;;7.00;1.67;;;;;;;;5052458;28;45327;-77
2023/12/21 13:48:11;;;;;;;;;2.67;2.00;;;;;;;;5037695;28;45947;-77
2023/12/21 13:50:36;;;;;;;;;6.67;3.00;;;;;;;;5041164;28;45287;-77
2023/12/21 13:53:01;;;;;;;;;2.00;2.00;;;;;;;;5038799;28;46620;-78
2023/12/21 13:55:29;;;;;;;;;2.33;2.33;;;;;;;;5040193;28;45409;-77
2023/12/21 13:57:54;;;;;;;;;3.67;3.00;;;;;;;;5039240;28;45177;-77
2023/12/21 14:00:22;;;;;;;;;4.00;2.33;;;;;;;;5040568;28;45218;-78
2023/12/21 14:02:49;;;;;;;;;2.67;1.33;;;;;;;;5037265;28;46828;-77
2023/12/21 14:05:14;;;;;;;;;3.00;3.00;;;;;;;;5036966;28;45421;-78
2023/12/21 14:07:39;;;;;;;;;3.00;1.00;;;;;;;;5043675;28;45358;-77
2023/12/21 14:10:04;;;;;;;;;3.00;1.33;;;;;;;;5035904;28;45282;-78
2023/12/21 14:12:30;;;;;;;;;2.00;1.00;;;;;;;;5042803;28;45423;-78
2023/12/21 14:14:56;;;;;;;;;5.33;1.00;;;;;;;;5037385;28;45390;-78
2023/12/21 14:17:21;;;;;;;;;3.33;2.00;;;;;;;;5040969;28;45157;-78
2023/12/21 14:19:46;;;;;;;;;2.00;1.00;;;;;;;;5037264;28;44890;-78
2023/12/21 14:22:11;;;;;;;;;1.00;1.00;;;;;;;;5040584;28;45417;-79
2023/12/21 14:24:36;;;;;;;;;3.67;1.67;;;;;;;;5036232;28;45370;-78
2023/12/21 14:27:02;;;;;;;;;2.00;2.00;;;;;;;;5038160;28;45296;-78
2023/12/21 14:29:27;;;;;;;;;4.33;1.00;;;;;;;;5039069;28;45217;-79
2023/12/21 14:31:52;;;;;;;;;3.33;1.00;;;;;;;;5039992;28;45692;-78
2023/12/21 14:34:19;;;;;;;;;1.33;1.33;;;;;;;;5038416;28;45206;-79
2023/12/21 14:36:44;;;;;;;;;1.33;1.00;;;;;;;;5040040;28;45230;-76
2023/12/21 14:39:11;;;;;;;;;5.00;2.67;;;;;;;;5031045;28;45671;-78
2023/12/21 14:41:36;;;;;;;;;2.33;1.00;;;;;;;;5039306;28;45700;-76
2023/12/21 14:44:02;;;;;;;;;3.00;1.33;;;;;;;;5032816;28;45412;-76
2023/12/21 14:46:27;;;;;;;;;0.33;0.33;;;;;;;;5035985;28;45517;-79
2023/12/21 14:48:53;;;;;;;;;0.67;0.00;;;;;;;;5024759;28;46260;-78
2023/12/21 14:51:20;;;;;;;;;2.00;0.67;;;;;;;;5039095;28;46406;-81
2023/12/21 14:53:45;;;;;;;;;1.00;1.00;;;;;;;;5034012;28;45342;-80
2023/12/21 14:56:10;;;;;;;;;2.00;1.00;;;;;;;;5040927;28;45130;-79
2023/12/21 14:58:36;;;;;;;;;4.67;2.00;;;;;;;;5033530;28;46977;-80
2023/12/21 15:01:02;;;;;;;;;1.33;1.00;;;;;;;;5039828;28;45463;-80
2023/12/21 15:03:30;;;;;;;;;1.00;1.00;;;;;;;;5036068;28;45471;-79
2023/12/21 15:05:55;;;;;;;;;3.00;2.00;;;;;;;;5035354;28;45442;-80
2023/12/21 15:08:21;;;;;;;;;4.33;2.00;;;;;;;;5030454;28;45516;-78
2023/12/21 15:10:46;;;;;;;;;3.00;1.67;;;;;;;;5039770;28;46033;-79
2023/12/21 15:13:11;;;;;;;;;6.00;1.00;;;;;;;;5037704;28;45295;-79
2023/12/21 15:15:36;;;;;;;;;3.33;2.00;;;;;;;;5037345;28;44773;-76
2023/12/21 15:18:02;;;;;;;;;2.67;2.00;;;;;;;;5036956;28;45268;-78
2023/12/21 15:20:28;;;;;;;;;5.33;2.33;;;;;;;;5038613;28;45402;-78
2023/12/21 15:22:53;;;;;;;;;3.33;1.33;;;;;;;;5039043;28;45240;-76
2023/12/21 15:25:18;;;;;;;;;3.00;1.00;;;;;;;;5050513;28;45456;-78
2023/12/21 15:27:44;;;;;;;;;3.67;2.00;;;;;;;;5037967;28;46333;-80
2023/12/21 15:30:10;;;;;;;;;6.67;2.33;;;;;;;;5038925;28;45755;-78
2023/12/21 15:32:35;;;;;;;;;3.33;3.00;;;;;;;;5030320;28;45262;-77
2023/12/21 15:35:00;;;;;;;;;2.00;1.67;;;;;;;;5030151;28;45506;-77
2023/12/21 15:37:25;;;;;;;;;3.67;2.00;;;;;;;;5038704;28;45892;-79
2023/12/21 15:39:50;;;;;;;;;6.33;3.00;;;;;;;;5033244;28;46055;-77
2023/12/21 15:42:16;;;;;;;;;3.33;1.33;;;;;;;;5036982;28;45106;-77
2023/12/21 15:44:42;;;;;;;;;6.00;2.00;;;;;;;;5033941;28;45279;-77
2023/12/21 15:47:07;;;;;;;;;2.00;2.00;;;;;;;;5034290;28;46121;-78
2023/12/21 15:49:32;;;;;;;;;2.67;2.00;;;;;;;;5029832;28;45570;-77
2023/12/21 15:51:57;;;;;;;;;6.33;3.00;;;;;;;;5027836;28;45307;-78
2023/12/21 15:54:22;;;;;;;;;3.00;3.00;;;;;;;;5032649;28;45353;-78
2023/12/21 15:56:48;;;;;;;;;4.33;1.00;;;;;;;;5038103;28;45549;-76
2023/12/21 15:59:13;;;;;;;;;5.33;2.00;;;;;;;;5031739;28;45434;-79
2023/12/21 16:01:38;;;;;;;;;5.33;2.00;;;;;;;;5027947;28;45495;-79
2023/12/21 16:04:06;;;;;;;;;4.67;2.00;;;;;;;;5032413;28;45421;-80
2023/12/21 16:06:32;;;;;;;;;7.33;3.00;;;;;;;;5038867;28;45347;-79
2023/12/21 16:08:58;;;;;;;;;5.33;2.00;;;;;;;;5031332;28;46062;-80
2023/12/21 16:11:23;;;;;;;;;5.33;4.00;;;;;;;;5036933;28;45403;-79
2023/12/21 16:13:48;;;;;;;;;2.00;2.00;;;;;;;;5031659;28;45354;-78
2023/12/21 16:16:14;;;;;;;;;4.33;4.00;;;;;;;;5038265;28;45302;-78
2023/12/21 16:18:39;;;;;;;;;5.33;3.00;;;;;;;;5032046;28;48216;-78
2023/12/21 16:21:04;;;;;;;;;2.33;2.00;;;;;;;;5038277;28;45359;-77
2023/12/21 16:23:29;;;;;;;;;2.67;2.67;;;;;;;;5034405;28;45464;-80
2023/12/21 16:25:57;;;;;;;;;3.00;3.00;;;;;;;;5035156;28;45343;-78
2023/12/21 16:28:23;;;;;;;;;2.00;1.67;;;;;;;;5035186;28;47279;-77
2023/12/21 16:30:48;;;;;;;;;7.33;2.67;;;;;;;;5038423;28;45296;-78
2023/12/21 16:33:13;;;;;;;;;4.67;2.00;;;;;;;;5036428;28;45330;-78
2023/12/21 16:35:39;;;;;;;;;2.67;2.00;;;;;;;;5034822;28;44834;-78
2023/12/21 16:38:05;;;;;;;;;1.33;1.00;;;;;;;;5028758;28;45440;-77
2023/12/21 16:40:30;;;;;;;;;4.33;3.00;;;;;;;;5037468;28;45281;-81
2023/12/21 16:42:55;;;;;;;;;2.33;0.00;;;;;;;;5039370;28;45495;-78
2023/12/21 16:45:21;;;;;;;;;3.00;2.00;;;;;;;;5037628;28;45346;-79
2023/12/21 16:47:46;;;;;;;;;3.67;0.67;;;;;;;;5039663;28;45487;-78
2023/12/21 16:50:11;;;;;;;;;7.33;4.00;;;;;;;;5030509;28;45429;-79
2023/12/21 16:52:36;;;;;;;;;3.33;1.33;;;;;;;;5037530;28;45395;-78
2023/12/21 16:55:02;;;;;;;;;5.00;3.67;;;;;;;;5032791;28;45412;-78
2023/12/21 16:57:28;;;;;;;;;4.00;4.00;;;;;;;;5038206;28;45662;-76
2023/12/21 16:59:54;;;;;;;;;5.67;3.67;;;;;;;;5032139;28;46211;-77
2023/12/21 17:02:19;;;;;;;;;4.00;2.00;;;;;;;;5041318;28;45453;-76
2023/12/21 17:04:44;;;;;;;;;6.00;3.33;;;;;;;;5032876;28;45608;-78
2023/12/21 17:07:09;;;;;;;;;4.00;3.00;;;;;;;;5033127;28;47074;-76
2023/12/21 17:09:34;;;;;;;;;5.00;2.67;;;;;;;;5036397;28;45905;-79
2023/12/21 17:12:00;;;;;;;;;4.67;2.00;;;;;;;;5041752;28;45404;-79
2023/12/21 17:14:25;;;;;;;;;4.00;2.67;;;;;;;;5034024;28;45619;-78
2023/12/21 17:16:50;;;;;;;;;8.33;3.33;;;;;;;;5036391;28;46205;-79
2023/12/21 17:19:15;;;;;;;;;4.67;3.00;;;;;;;;5038283;28;44859;-80
2023/12/21 17:21:40;;;;;;;;;4.67;1.67;;;;;;;;5040255;28;45468;-79
2023/12/21 17:24:06;;;;;;;;;6.33;4.00;;;;;;;;5037287;28;46017;-79
2023/12/21 17:26:31;;;;;;;;;4.33;2.00;;;;;;;;5040074;28;46323;-80
2023/12/21 17:28:57;;;;;;;;;2.00;2.00;;;;;;;;5038818;28;45285;-78
2023/12/21 17:31:22;;;;;;;;;5.67;3.00;;;;;;;;5039794;28;45410;-79
2023/12/21 17:33:50;;;;;;;;;4.33;3.00;;;;;;;;5038189;28;45453;-79
2023/12/21 17:36:16;;;;;;;;;5.00;4.00;;;;;;;;5034263;28;45475;-79
2023/12/21 17:38:41;;;;;;;;;2.50;2.00;;;;;;;;5029446;28;46249;-79
2023/12/21 17:41:07;;;;;;;;;7.00;4.00;;;;;;;;5037647;28;45412;-79
2023/12/21 17:43:32;;;;;;;;;8.33;4.33;;;;;;;;5037047;28;45543;-78
2023/12/21 17:45:59;;;;;;;;;5.33;3.00;;;;;;;;5039191;28;45321;-76
2023/12/21 17:48:24;;;;;;;;;4.67;3.00;;;;;;;;5037269;28;45443;-75
2023/12/21 17:50:50;;;;;;;;;7.33;3.00;;;;;;;;5034891;28;45362;-78
2023/12/21 17:53:15;;;;;;;;;3.00;2.00;;;;;;;;5035795;28;45345;-77
2023/12/21 17:55:41;;;;;;;;;6.00;3.33;;;;;;;;5037372;28;45410;-75
2023/12/21 17:58:07;;;;;;;;;5.00;2.00;;;;;;;;5034589;28;45503;-76
2023/12/21 18:00:32;;;;;;;;;5.00;5.00;;;;;;;;5037676;28;45235;-75
2023/12/21 18:02:57;;;;;;;;;3.67;3.33;;;;;;;;5038596;28;45472;-77
2023/12/21 18:05:22;;;;;;;;;5.00;4.00;;;;;;;;5040193;28;45630;-77
2023/12/21 18:07:47;;;;;;;;;5.00;4.00;;;;;;;;5042432;28;45277;-76
2023/12/21 18:10:13;;;;;;;;;6.67;3.00;;;;;;;;5041532;28;45163;-77
2023/12/21 18:12:38;;;;;;;;;8.33;5.00;;;;;;;;5040613;28;45344;-77
2023/12/21 18:15:05;;;;;;;;;6.00;2.33;;;;;;;;5038635;28;46411;-77
2023/12/21 18:17:30;;;;;;;;;7.00;4.33;;;;;;;;5040944;28;45172;-77
2023/12/21 18:19:55;;;;;;;;;5.00;4.00;;;;;;;;5038557;28;45619;-76
2023/12/21 18:22:20;;;;;;;;;4.00;3.33;;;;;;;;5039473;28;45830;-77
2023/12/21 18:24:48;;;;;;;;;4.00;4.00;;;;;;;;5036630;28;45410;-76
2023/12/21 18:27:13;;;;;;;;;6.00;4.67;;;;;;;;5038327;28;46236;-76
2023/12/21 18:29:38;;;;;;;;;7.33;5.33;;;;;;;;5038201;28;45195;-76
2023/12/21 18:32:04;;;;;;;;;5.00;5.00;;;;;;;;5040686;28;45330;-76
2023/12/21 18:34:29;;;;;;;;;16.00;9.33;;;;;;;;5035086;28;47632;-74
2023/12/21 18:36:56;;;;;;;;;7.67;5.00;;;;;;;;5040293;28;45327;-75
2023/12/21 18:39:21;;;;;;;;;6.33;5.33;;;;;;;;5035232;28;45289;-75
2023/12/21 18:41:46;;;;;;;;;7.33;4.00;;;;;;;;5040356;28;45272;-75
2023/12/21 18:44:12;;;;;;;;;8.67;6.67;;;;;;;;5031142;28;47479;-75
2023/12/21 18:46:37;;;;;;;;;4.33;3.00;;;;;;;;5039921;28;45160;-75
2023/12/21 18:49:03;;;;;;;;;3.33;2.67;;;;;;;;5034884;28;45334;-76
2023/12/21 18:51:28;;;;;;;;;5.00;3.33;;;;;;;;5047935;28;45249;-78